createdAt,value
2017-04-19T00:00:35.673Z,95.69
2017-04-19T00:01:16.131Z,95.31
2017-04-19T00:01:56.624Z,96.16
2017-04-19T00:02:37.192Z,96.26
2017-04-19T00:03:17.718Z,96.07
2017-04-19T00:03:58.172Z,96.16
2017-04-19T00:04:38.653Z,96.35
2017-04-19T00:05:19.130Z,96.73
2017-04-19T00:05:59.606Z,96.35
2017-04-19T00:06:40.104Z,96.64
2017-04-19T00:07:20.567Z,96.92
2017-04-19T00:08:01.042Z,96.45
2017-04-19T00:08:41.581Z,96.45
2017-04-19T00:09:22.020Z,96.35
2017-04-19T00:11:23.839Z,97.11
2017-04-19T00:12:11.942Z,96.73
2017-04-19T00:13:00.327Z,97.01
2017-04-19T00:13:49.124Z,97.2
2017-04-19T00:14:37.838Z,96.83
2017-04-19T00:15:23.105Z,96.92
2017-04-19T00:16:10.292Z,97.01
2017-04-19T00:16:58.838Z,97.11
2017-04-19T00:17:47.267Z,97.58
2017-04-19T00:18:35.658Z,97.2
2017-04-19T00:19:16.631Z,97.2
2017-04-19T00:19:57.099Z,97.2
2017-04-19T00:20:37.591Z,97.2
2017-04-19T00:21:18.119Z,97.77
2017-04-19T00:21:58.575Z,97.63
2017-04-19T00:22:39.043Z,97.77
2017-04-19T00:23:19.497Z,97.49
2017-04-19T00:24:00.073Z,97.3
2017-04-19T00:24:40.556Z,97.67
2017-04-19T00:25:21.018Z,98.14
2017-04-19T00:26:01.495Z,98.24
2017-04-19T00:26:41.949Z,98.28
2017-04-19T00:27:22.448Z,97.96
2017-04-19T00:28:02.916Z,98.1
2017-04-19T00:28:43.397Z,98.62
2017-04-19T00:29:23.870Z,98.47
2017-04-19T00:30:04.335Z,98.52
2017-04-19T00:30:44.835Z,98.9
2017-04-19T00:31:25.295Z,98.71
2017-04-19T00:32:05.770Z,98.19
2017-04-19T00:32:46.271Z,99.04
2017-04-19T00:33:26.763Z,99
2017-04-19T00:34:07.265Z,98.33
2017-04-19T00:34:47.738Z,98.76
2017-04-19T00:35:28.224Z,98.9
2017-04-19T00:36:08.720Z,98.47
2017-04-19T00:36:49.211Z,98.57
2017-04-19T00:37:29.647Z,98.81
2017-04-19T00:38:10.092Z,98.66
2017-04-19T00:38:50.635Z,98.76
2017-04-19T00:39:31.036Z,98.66
2017-04-19T00:40:11.504Z,98.76
2017-04-19T00:40:51.958Z,98.66
2017-04-19T00:41:32.464Z,98.66
2017-04-19T00:42:12.989Z,98.76
2017-04-19T00:42:53.410Z,98.76
2017-04-19T00:43:33.924Z,98.38
2017-04-19T00:44:14.399Z,98.38
2017-04-19T00:44:54.874Z,98.95
2017-04-19T00:45:35.297Z,99.14
2017-04-19T00:46:15.769Z,99.14
2017-04-19T00:46:56.230Z,98.95
2017-04-19T00:47:36.737Z,98.85
2017-04-19T00:48:17.208Z,98.76
2017-04-19T00:48:57.727Z,99.71
2017-04-19T00:49:38.200Z,99.71
2017-04-19T00:50:18.646Z,99.14
2017-04-19T00:50:59.221Z,99.23
2017-04-19T00:51:39.675Z,99.52
2017-04-19T00:52:20.218Z,99.52
2017-04-19T00:53:00.676Z,99.14
2017-04-19T00:53:41.134Z,99.33
2017-04-19T00:54:21.601Z,99.52
2017-04-19T00:55:02.123Z,99.8
2017-04-19T00:55:42.602Z,98.76
2017-04-19T00:56:23.117Z,98.95
2017-04-19T00:57:03.577Z,98.85
2017-04-19T00:57:44.094Z,99.8
2017-04-19T00:58:24.566Z,99.8
2017-04-19T00:59:05.094Z,99.89
2017-04-19T00:59:45.531Z,99.99
2017-04-19T01:00:25.969Z,99.8
2017-04-19T01:01:06.429Z,99.61
2017-04-19T01:01:46.895Z,99.99
2017-04-19T01:02:27.407Z,99.99
2017-04-19T01:03:07.908Z,99.99
2017-04-19T01:03:48.322Z,99.99
2017-04-19T01:04:28.794Z,99.99
2017-04-19T01:05:09.276Z,99.99
2017-04-19T01:05:49.738Z,99.99
2017-04-19T01:06:30.215Z,99.99
2017-04-19T01:07:10.670Z,99.99
2017-04-19T01:07:51.154Z,99.99
2017-04-19T01:08:31.653Z,99.99
2017-04-19T01:09:12.145Z,99.99
2017-04-19T01:09:52.562Z,99.99
2017-04-19T01:10:33.066Z,99.99
2017-04-19T01:11:13.510Z,99.99
2017-04-19T01:11:53.952Z,99.99
2017-04-19T01:12:34.475Z,99.99
2017-04-19T01:13:14.899Z,99.99
2017-04-19T01:13:55.423Z,99.99
2017-04-19T01:14:35.872Z,99.99
2017-04-19T01:15:16.345Z,99.99
2017-04-19T01:15:56.826Z,99.99
2017-04-19T01:16:37.359Z,99.99
2017-04-19T01:17:17.823Z,99.99
2017-04-19T01:17:58.279Z,99.99
2017-04-19T01:18:38.813Z,99.99
2017-04-19T01:19:19.260Z,99.99
2017-04-19T01:19:59.734Z,99.99
2017-04-19T01:20:40.220Z,99.99
2017-04-19T01:21:20.717Z,99.99
2017-04-19T01:22:01.204Z,99.99
2017-04-19T01:22:41.710Z,99.99
2017-04-19T01:23:22.295Z,99.99
2017-04-19T01:24:02.903Z,99.99
2017-04-19T01:24:43.358Z,99.99
2017-04-19T01:25:23.867Z,99.99
2017-04-19T01:26:04.315Z,99.99
2017-04-19T01:26:44.805Z,99.99
2017-04-19T01:27:25.314Z,99.99
2017-04-19T01:28:05.781Z,99.99
2017-04-19T01:28:46.240Z,99.99
2017-04-19T01:29:26.751Z,99.99
2017-04-19T01:30:07.288Z,99.99
2017-04-19T01:30:47.829Z,99.99
2017-04-19T01:31:28.250Z,99.99
2017-04-19T01:32:08.788Z,99.99
2017-04-19T01:32:49.278Z,99.99
2017-04-19T01:33:29.740Z,99.99
2017-04-19T01:34:12.180Z,99.99
2017-04-19T01:34:52.662Z,99.99
2017-04-19T01:35:33.162Z,99.99
2017-04-19T01:36:13.687Z,99.99
2017-04-19T01:36:54.147Z,99.99
2017-04-19T01:37:34.593Z,99.99
2017-04-19T01:38:15.083Z,99.99
2017-04-19T01:38:55.529Z,99.99
2017-04-19T01:39:36.052Z,99.99
2017-04-19T01:40:16.508Z,99.99
2017-04-19T01:40:56.978Z,99.99
2017-04-19T01:41:37.471Z,99.99
2017-04-19T01:42:17.935Z,99.99
2017-04-19T01:42:58.488Z,99.99
2017-04-19T01:43:38.935Z,99.99
2017-04-19T01:44:19.462Z,99.99
2017-04-19T01:44:59.990Z,99.99
2017-04-19T01:45:40.500Z,99.99
2017-04-19T01:46:20.965Z,99.99
2017-04-19T01:47:01.438Z,99.99
2017-04-19T01:47:41.950Z,99.99
2017-04-19T01:48:22.412Z,99.99
2017-04-19T01:49:02.915Z,99.99
2017-04-19T01:49:43.399Z,99.99
2017-04-19T01:50:23.814Z,99.99
2017-04-19T01:51:04.312Z,99.99
2017-04-19T01:51:44.776Z,99.99
2017-04-19T01:52:25.288Z,99.99
2017-04-19T01:53:05.760Z,99.99
2017-04-19T01:53:46.239Z,99.99
2017-04-19T01:54:26.756Z,99.99
2017-04-19T01:55:07.260Z,99.99
2017-04-19T01:55:47.695Z,99.99
2017-04-19T01:56:28.245Z,99.99
2017-04-19T01:57:08.730Z,99.99
2017-04-19T01:57:49.193Z,99.99
2017-04-19T01:58:29.626Z,99.99
2017-04-19T01:59:10.091Z,99.99
2017-04-19T01:59:50.558Z,99.99
2017-04-19T02:00:31.051Z,99.99
2017-04-19T02:01:11.564Z,99.99
2017-04-19T02:01:51.994Z,99.99
2017-04-19T02:02:32.461Z,99.99
2017-04-19T02:03:12.903Z,99.99
2017-04-19T02:03:53.374Z,99.99
2017-04-19T02:04:33.900Z,99.99
2017-04-19T02:05:14.373Z,99.99
2017-04-19T02:05:54.803Z,99.99
2017-04-19T02:06:35.305Z,99.99
2017-04-19T02:07:15.775Z,99.99
2017-04-19T02:07:56.265Z,99.99
2017-04-19T02:08:36.734Z,99.99
2017-04-19T02:09:17.254Z,99.99
2017-04-19T02:09:57.716Z,99.99
2017-04-19T02:10:38.170Z,99.99
2017-04-19T02:11:18.646Z,99.99
2017-04-19T02:11:59.223Z,99.99
2017-04-19T02:12:39.696Z,99.99
2017-04-19T02:13:20.144Z,99.99
2017-04-19T02:14:00.671Z,99.99
2017-04-19T02:14:41.141Z,99.99
2017-04-19T02:15:21.616Z,99.99
2017-04-19T02:16:02.162Z,99.99
2017-04-19T02:16:42.568Z,99.99
2017-04-19T02:17:23.031Z,99.99
2017-04-19T02:18:03.551Z,99.99
2017-04-19T02:18:44.021Z,99.99
2017-04-19T02:19:24.508Z,99.99
2017-04-19T02:20:04.967Z,99.99
2017-04-19T02:20:45.456Z,99.99
2017-04-19T02:21:25.925Z,99.99
2017-04-19T02:22:06.382Z,99.99
2017-04-19T02:22:46.852Z,99.99
2017-04-19T02:23:27.361Z,99.99
2017-04-19T02:24:07.813Z,99.99
2017-04-19T02:24:48.281Z,99.99
2017-04-19T02:25:28.805Z,99.99
2017-04-19T02:26:09.264Z,99.99
2017-04-19T02:26:49.724Z,99.99
2017-04-19T02:27:30.208Z,99.99
2017-04-19T02:28:10.675Z,99.99
2017-04-19T02:28:51.161Z,99.99
2017-04-19T02:29:31.664Z,99.99
2017-04-19T02:30:12.150Z,99.99
2017-04-19T02:30:52.605Z,99.99
2017-04-19T02:31:33.073Z,99.99
2017-04-19T02:32:13.581Z,99.99
2017-04-19T02:32:54.061Z,99.99
2017-04-19T02:33:34.498Z,99.99
2017-04-19T02:34:14.978Z,99.99
2017-04-19T02:34:55.452Z,99.99
2017-04-19T02:35:35.952Z,99.99
2017-04-19T02:36:16.471Z,99.99
2017-04-19T02:36:56.918Z,99.99
2017-04-19T02:37:37.455Z,99.99
2017-04-19T02:38:17.960Z,99.99
2017-04-19T02:38:58.445Z,99.99
2017-04-19T02:39:40.711Z,99.99
2017-04-19T02:40:21.162Z,99.99
2017-04-19T02:41:01.617Z,99.99
2017-04-19T02:41:42.159Z,99.99
2017-04-19T02:42:22.605Z,99.99
2017-04-19T02:43:03.131Z,99.99
2017-04-19T02:43:43.612Z,99.99
2017-04-19T02:44:24.101Z,99.99
2017-04-19T02:45:04.591Z,99.99
2017-04-19T02:45:45.080Z,99.99
2017-04-19T02:46:25.528Z,99.99
2017-04-19T02:47:06.043Z,99.99
2017-04-19T02:47:46.490Z,99.99
2017-04-19T02:48:27.013Z,99.99
2017-04-19T02:49:07.472Z,99.99
2017-04-19T02:49:47.979Z,99.99
2017-04-19T02:50:28.645Z,99.99
2017-04-19T02:51:09.107Z,99.99
2017-04-19T02:51:49.582Z,99.99
2017-04-19T02:52:30.060Z,99.99
2017-04-19T02:53:10.554Z,99.99
2017-04-19T02:53:52.660Z,99.99
2017-04-19T02:54:33.146Z,99.99
2017-04-19T02:55:13.649Z,99.99
2017-04-19T02:55:54.154Z,99.99
2017-04-19T02:56:34.577Z,99.99
2017-04-19T02:57:15.074Z,99.99
2017-04-19T02:57:55.538Z,99.99
2017-04-19T02:58:36.049Z,99.99
2017-04-19T02:59:16.557Z,99.99
2017-04-19T02:59:57.579Z,99.99
2017-04-19T03:00:38.097Z,99.99
2017-04-19T03:01:18.545Z,99.99
2017-04-19T03:01:59.018Z,99.99
2017-04-19T03:02:39.519Z,99.99
2017-04-19T03:03:19.995Z,99.99
2017-04-19T03:04:00.452Z,99.99
2017-04-19T03:04:40.959Z,99.99
2017-04-19T03:05:23.229Z,99.99
2017-04-19T03:06:03.644Z,99.99
2017-04-19T03:06:44.153Z,99.99
2017-04-19T03:07:24.596Z,99.99
2017-04-19T03:08:05.132Z,99.99
2017-04-19T03:08:45.595Z,99.99
2017-04-19T03:09:26.088Z,99.99
2017-04-19T03:10:06.600Z,99.99
2017-04-19T03:10:47.049Z,99.99
2017-04-19T03:11:32.096Z,99.99
2017-04-19T03:12:12.588Z,99.99
2017-04-19T03:12:53.936Z,99.99
2017-04-19T03:13:34.451Z,99.99
2017-04-19T03:14:14.875Z,99.99
2017-04-19T03:14:55.400Z,99.99
2017-04-19T03:15:35.881Z,99.99
2017-04-19T03:16:16.312Z,99.99
2017-04-19T03:18:34.808Z,99.99
2017-04-19T03:19:23.310Z,99.99
2017-04-19T03:20:11.919Z,99.99
2017-04-19T03:21:00.422Z,99.99
2017-04-19T03:21:49.285Z,99.99
2017-04-19T03:22:37.658Z,99.99
2017-04-19T03:23:26.154Z,99.99
2017-04-19T03:24:14.860Z,99.99
2017-04-19T03:25:03.252Z,99.99
2017-04-19T03:25:52.347Z,99.99
2017-04-19T03:26:40.483Z,99.99
2017-04-19T03:27:28.611Z,99.99
2017-04-19T03:29:33.289Z,99.99
2017-04-19T03:30:20.818Z,99.99
2017-04-19T03:31:09.600Z,99.99
2017-04-19T03:31:57.850Z,99.99
2017-04-19T03:32:46.481Z,99.99
2017-04-19T03:33:34.891Z,99.99
2017-04-19T03:34:23.803Z,99.99
2017-04-19T03:35:10.209Z,99.99
2017-04-19T03:35:59.209Z,99.99
2017-04-19T03:36:47.748Z,99.99
2017-04-19T03:37:36.110Z,99.99
2017-04-19T03:38:25.200Z,99.99
2017-04-19T03:39:06.864Z,99.99
2017-04-19T03:39:47.325Z,99.99
2017-04-19T03:40:27.834Z,99.99
2017-04-19T03:41:08.264Z,99.99
2017-04-19T03:41:48.771Z,99.99
2017-04-19T03:42:29.236Z,99.99
2017-04-19T03:43:09.726Z,99.99
2017-04-19T03:43:50.214Z,99.99
2017-04-19T03:44:30.653Z,99.99
2017-04-19T03:45:11.125Z,99.99
2017-04-19T03:45:51.582Z,99.99
2017-04-19T03:46:32.066Z,99.99
2017-04-19T03:47:12.586Z,99.99
2017-04-19T03:47:53.051Z,99.99
2017-04-19T03:48:33.583Z,99.99
2017-04-19T03:49:14.097Z,99.99
2017-04-19T03:49:54.487Z,99.99
2017-04-19T03:50:35.029Z,99.99
2017-04-19T03:51:15.438Z,99.99
2017-04-19T03:51:55.919Z,99.99
2017-04-19T03:52:36.431Z,99.99
2017-04-19T03:53:16.898Z,99.99
2017-04-19T03:53:57.370Z,99.99
2017-04-19T03:54:37.874Z,99.99
2017-04-19T03:55:18.350Z,99.99
2017-04-19T03:55:58.841Z,99.99
2017-04-19T03:56:39.275Z,99.99
2017-04-19T03:57:19.759Z,99.99
2017-04-19T03:58:00.244Z,99.99
2017-04-19T03:58:40.709Z,99.99
2017-04-19T03:59:21.209Z,99.99
2017-04-19T04:00:01.711Z,99.99
2017-04-19T04:00:42.182Z,99.99
2017-04-19T04:01:22.656Z,99.99
2017-04-19T04:02:03.138Z,99.99
2017-04-19T04:02:43.595Z,99.99
2017-04-19T04:03:24.073Z,99.99
2017-04-19T04:04:04.534Z,99.99
2017-04-19T04:04:45.011Z,99.99
2017-04-19T04:05:25.446Z,99.99
2017-04-19T04:06:05.976Z,99.99
2017-04-19T04:06:46.402Z,99.99
2017-04-19T04:07:26.828Z,99.99
2017-04-19T04:08:07.314Z,99.99
2017-04-19T04:08:47.790Z,99.99
2017-04-19T04:09:28.271Z,99.99
2017-04-19T04:10:08.730Z,99.99
2017-04-19T04:10:49.217Z,99.99
2017-04-19T04:11:29.676Z,99.99
2017-04-19T04:12:10.172Z,99.99
2017-04-19T04:12:50.664Z,99.99
2017-04-19T04:13:31.087Z,99.99
2017-04-19T04:14:11.552Z,99.99
2017-04-19T04:14:52.099Z,99.99
2017-04-19T04:15:32.549Z,99.99
2017-04-19T04:16:13.073Z,99.99
2017-04-19T04:16:53.500Z,99.99
2017-04-19T04:17:33.988Z,99.99
2017-04-19T04:18:14.416Z,99.99
2017-04-19T04:18:54.891Z,99.99
2017-04-19T04:19:35.396Z,99.99
2017-04-19T04:20:15.868Z,99.99
2017-04-19T04:20:56.368Z,99.99
2017-04-19T04:21:36.800Z,99.99
2017-04-19T04:22:17.339Z,99.99
2017-04-19T04:22:57.730Z,99.99
2017-04-19T04:23:38.212Z,99.99
2017-04-19T04:24:18.690Z,99.99
2017-04-19T04:24:59.175Z,99.99
2017-04-19T04:25:39.657Z,99.99
2017-04-19T04:26:20.127Z,99.99
2017-04-19T04:27:00.613Z,99.99
2017-04-19T04:27:41.112Z,99.99
2017-04-19T04:28:21.548Z,99.99
2017-04-19T04:29:02.011Z,99.99
2017-04-19T04:29:42.482Z,99.99
2017-04-19T04:30:22.964Z,99.99
2017-04-19T04:31:03.448Z,99.99
2017-04-19T04:31:43.891Z,99.99
2017-04-19T04:32:24.381Z,99.99
2017-04-19T04:33:04.825Z,99.99
2017-04-19T04:33:45.343Z,99.99
2017-04-19T04:34:25.835Z,99.99
2017-04-19T04:35:06.293Z,99.99
2017-04-19T04:35:46.753Z,99.99
2017-04-19T04:36:27.191Z,99.99
2017-04-19T04:37:07.698Z,99.99
2017-04-19T04:37:48.158Z,99.99
2017-04-19T04:38:28.800Z,99.99
2017-04-19T04:39:09.263Z,99.99
2017-04-19T04:39:49.712Z,99.99
2017-04-19T04:40:30.194Z,99.99
2017-04-19T04:41:10.684Z,99.99
2017-04-19T04:41:51.133Z,99.99
2017-04-19T04:42:31.624Z,99.99
2017-04-19T04:43:12.111Z,99.99
2017-04-19T04:43:52.610Z,99.99
2017-04-19T04:44:33.113Z,99.99
2017-04-19T04:45:13.547Z,99.99
2017-04-19T04:45:54.044Z,99.99
2017-04-19T04:46:34.502Z,99.99
2017-04-19T04:47:14.928Z,99.99
2017-04-19T04:47:55.469Z,99.99
2017-04-19T04:48:35.926Z,99.99
2017-04-19T04:49:16.452Z,99.99
2017-04-19T04:49:56.929Z,99.99
2017-04-19T04:50:37.404Z,99.99
2017-04-19T04:51:17.865Z,99.99
2017-04-19T04:51:58.368Z,99.99
2017-04-19T04:52:38.997Z,99.99
2017-04-19T04:53:19.475Z,99.99
2017-04-19T04:53:59.925Z,99.99
2017-04-19T04:54:40.404Z,99.99
2017-04-19T04:55:22.393Z,99.99
2017-04-19T04:56:02.875Z,99.99
2017-04-19T04:56:43.359Z,99.99
2017-04-19T04:57:23.795Z,99.99
2017-04-19T04:58:04.255Z,99.99
2017-04-19T04:58:44.747Z,99.99
2017-04-19T04:59:25.205Z,99.99
2017-04-19T05:00:05.687Z,99.99
2017-04-19T05:00:46.152Z,99.99
2017-04-19T05:01:26.593Z,99.99
2017-04-19T05:02:07.066Z,99.99
2017-04-19T05:02:47.578Z,99.99
2017-04-19T05:03:28.012Z,99.99
2017-04-19T05:04:08.599Z,99.99
2017-04-19T05:04:49.127Z,99.99
2017-04-19T05:05:29.606Z,99.99
2017-04-19T05:06:10.119Z,99.99
2017-04-19T05:06:50.569Z,99.99
2017-04-19T05:07:31.041Z,99.99
2017-04-19T05:08:11.521Z,99.99
2017-04-19T05:08:52.031Z,99.99
2017-04-19T05:11:08.899Z,99.99
2017-04-19T05:11:57.510Z,99.99
2017-04-19T05:12:46.332Z,99.99
2017-04-19T05:13:34.925Z,99.99
2017-04-19T05:14:22.385Z,99.99
2017-04-19T05:15:07.748Z,99.99
2017-04-19T05:15:54.535Z,99.99
2017-04-19T05:16:43.319Z,99.99
2017-04-19T05:17:27.865Z,99.99
2017-04-19T05:18:08.317Z,99.99
2017-04-19T05:18:48.819Z,99.99
2017-04-19T05:19:29.280Z,99.99
2017-04-19T05:20:09.740Z,99.99
2017-04-19T05:20:50.204Z,99.99
2017-04-19T05:21:30.674Z,99.99
2017-04-19T05:23:21.681Z,99.99
2017-04-19T05:24:10.700Z,99.99
2017-04-19T05:26:08.343Z,99.99
2017-04-19T05:26:56.645Z,99.99
2017-04-19T05:27:45.032Z,99.99
2017-04-19T05:28:32.138Z,99.99
2017-04-19T05:29:18.011Z,99.99
2017-04-19T05:30:06.548Z,99.99
2017-04-19T05:30:54.569Z,99.99
2017-04-19T05:32:52.523Z,99.99
2017-04-19T05:33:40.368Z,99.99
2017-04-19T05:34:27.130Z,99.99
2017-04-19T05:35:16.432Z,99.99
2017-04-19T05:36:02.683Z,99.99
2017-04-19T05:36:43.191Z,99.99
2017-04-19T05:37:23.650Z,99.99
2017-04-19T05:38:04.130Z,99.99
2017-04-19T05:38:44.649Z,99.99
2017-04-19T05:39:25.177Z,99.99
2017-04-19T05:40:05.650Z,99.99
2017-04-19T05:40:46.105Z,99.99
2017-04-19T05:41:26.566Z,99.99
2017-04-19T05:42:07.063Z,99.99
2017-04-19T05:42:47.542Z,99.99
2017-04-19T05:43:28.015Z,99.99
2017-04-19T05:44:08.620Z,99.99
2017-04-19T05:44:49.107Z,99.99
2017-04-19T05:45:29.572Z,99.99
2017-04-19T05:46:10.019Z,99.99
2017-04-19T05:46:50.473Z,99.99
2017-04-19T05:47:30.948Z,99.99
2017-04-19T05:48:11.439Z,99.99
2017-04-19T05:48:51.899Z,99.99
2017-04-19T05:49:32.379Z,99.99
2017-04-19T05:50:12.887Z,99.99
2017-04-19T05:50:53.319Z,99.99
2017-04-19T05:51:33.830Z,99.99
2017-04-19T05:52:14.297Z,99.99
2017-04-19T05:52:54.793Z,99.99
2017-04-19T05:53:35.231Z,99.99
2017-04-19T05:54:15.787Z,99.99
2017-04-19T05:54:56.378Z,99.99
2017-04-19T05:55:36.891Z,99.99
2017-04-19T05:56:17.484Z,99.99
2017-04-19T05:56:58.032Z,99.99
2017-04-19T05:57:38.598Z,99.99
2017-04-19T05:58:19.117Z,99.99
2017-04-19T05:58:59.642Z,99.99
2017-04-19T05:59:40.059Z,99.99
2017-04-19T06:00:20.563Z,99.99
2017-04-19T06:01:01.579Z,99.99
2017-04-19T06:01:42.052Z,99.99
2017-04-19T06:02:22.843Z,99.99
2017-04-19T06:03:03.361Z,99.99
2017-04-19T06:03:43.833Z,99.62
2017-04-19T06:04:24.295Z,99.62
2017-04-19T06:05:04.782Z,99.52
2017-04-19T06:05:45.271Z,99.62
2017-04-19T06:06:25.722Z,99.99
2017-04-19T06:07:06.244Z,99.33
2017-04-19T06:07:46.665Z,99.99
2017-04-19T06:08:28.056Z,99.99
2017-04-19T06:09:08.496Z,99.24
2017-04-19T06:09:48.983Z,99.99
2017-04-19T06:10:29.454Z,99.99
2017-04-19T06:11:09.905Z,99.99
2017-04-19T06:11:50.411Z,99.99
2017-04-19T06:12:30.855Z,99.99
2017-04-19T06:13:11.367Z,99.99
2017-04-19T06:13:51.849Z,99.9
2017-04-19T06:14:32.331Z,99.9
2017-04-19T06:15:12.811Z,99.71
2017-04-19T06:15:53.408Z,99.9
2017-04-19T06:16:33.990Z,99.99
2017-04-19T06:17:14.468Z,99.99
2017-04-19T06:17:54.952Z,99.99
2017-04-19T06:18:35.405Z,99.99
2017-04-19T06:19:15.946Z,99.76
2017-04-19T06:19:56.438Z,99.99
2017-04-19T06:20:36.903Z,99.99
2017-04-19T06:21:17.357Z,99.99
2017-04-19T06:21:57.855Z,99.85
2017-04-19T06:22:38.358Z,99.19
2017-04-19T06:23:18.820Z,99.38
2017-04-19T06:23:59.271Z,99.19
2017-04-19T06:24:39.759Z,98.91
2017-04-19T06:25:20.226Z,98.91
2017-04-19T06:26:00.831Z,99.38
2017-04-19T06:26:41.300Z,99.1
2017-04-19T06:27:21.800Z,99.1
2017-04-19T06:28:02.262Z,99.19
2017-04-19T06:28:42.784Z,98.63
2017-04-19T06:29:23.253Z,98.44
2017-04-19T06:30:03.711Z,98.72
2017-04-19T06:30:44.192Z,97.96
2017-04-19T06:31:24.678Z,98.06
2017-04-19T06:32:05.187Z,98.06
2017-04-19T06:32:45.671Z,97.68
2017-04-19T06:33:26.138Z,97.49
2017-04-19T06:34:06.611Z,97.2
2017-04-19T06:34:47.071Z,96.92
2017-04-19T06:35:27.555Z,97.3
2017-04-19T06:36:08.077Z,96.73
2017-04-19T06:36:48.514Z,96.73
2017-04-19T06:37:28.999Z,97.3
2017-04-19T06:38:09.447Z,96.45
2017-04-19T06:38:49.927Z,96.73
2017-04-19T06:39:30.393Z,96.45
2017-04-19T06:40:10.841Z,96.02
2017-04-19T06:40:51.319Z,95.55
2017-04-19T06:41:31.860Z,95.12
2017-04-19T06:42:12.312Z,94.74
2017-04-19T06:42:52.801Z,94.79
2017-04-19T06:43:33.276Z,95.17
2017-04-19T06:44:13.866Z,94.98
2017-04-19T06:44:54.356Z,94.79
2017-04-19T06:45:34.828Z,94.79
2017-04-19T06:46:15.288Z,94.89
2017-04-19T06:46:55.754Z,95.07
2017-04-19T06:47:36.281Z,94.79
2017-04-19T06:48:16.774Z,94.79
2017-04-19T06:48:57.230Z,94.79
2017-04-19T06:49:37.817Z,94.98
2017-04-19T06:50:18.309Z,95.17
2017-04-19T06:50:58.776Z,95.26
2017-04-19T06:51:39.247Z,94.89
2017-04-19T06:52:19.719Z,94.98
2017-04-19T06:53:00.208Z,95.26
2017-04-19T06:53:40.716Z,95.36
2017-04-19T06:54:21.216Z,95.26
2017-04-19T06:55:01.666Z,95.45
2017-04-19T06:55:42.160Z,95.36
2017-04-19T06:56:22.739Z,95.17
2017-04-19T06:57:03.278Z,95.45
2017-04-19T06:57:43.798Z,95.55
2017-04-19T06:58:24.285Z,95.55
2017-04-19T06:59:04.792Z,95.45
2017-04-19T06:59:45.228Z,95.07
2017-04-19T07:00:25.750Z,95.07
2017-04-19T07:01:22.123Z,95.83
2017-04-19T07:02:11.183Z,95.17
2017-04-19T07:02:51.053Z,95.55
2017-04-19T07:03:31.547Z,95.45
2017-04-19T07:04:12.062Z,95.64
2017-04-19T07:04:52.582Z,94.98
2017-04-19T07:05:33.038Z,95.26
2017-04-19T07:06:13.566Z,95.45
2017-04-19T07:06:54.072Z,95.45
2017-04-19T07:07:34.511Z,95.64
2017-04-19T07:08:15.090Z,95.41
2017-04-19T07:08:55.622Z,95.5
2017-04-19T07:09:36.022Z,95.26
2017-04-19T07:10:16.535Z,95.36
2017-04-19T07:10:56.961Z,95.6
2017-04-19T07:11:37.508Z,95.5
2017-04-19T07:12:17.998Z,95.22
2017-04-19T07:12:58.493Z,94.84
2017-04-19T07:13:39.029Z,95.03
2017-04-19T07:14:19.479Z,94.93
2017-04-19T07:14:59.970Z,95.12
2017-04-19T07:15:40.462Z,94.93
2017-04-19T07:16:21.417Z,95.22
2017-04-19T07:17:01.866Z,95.22
2017-04-19T07:17:42.997Z,95.22
2017-04-19T07:18:23.492Z,95.12
2017-04-19T07:19:03.980Z,94.65
2017-04-19T07:19:44.500Z,94.74
2017-04-19T07:20:25.024Z,94.27
2017-04-19T07:21:05.493Z,94.65
2017-04-19T07:21:45.983Z,94.56
2017-04-19T07:22:26.565Z,94.56
2017-04-19T07:23:07.137Z,94.46
2017-04-19T07:23:49.136Z,94.46
2017-04-19T07:24:29.584Z,94.37
2017-04-19T07:25:10.037Z,93.8
2017-04-19T07:25:50.599Z,93.99
2017-04-19T07:26:31.098Z,93.89
2017-04-19T07:27:11.539Z,93.89
2017-04-19T07:27:52.039Z,93.61
2017-04-19T07:28:32.479Z,93.99
2017-04-19T07:29:12.964Z,93.51
2017-04-19T07:29:53.488Z,93.61
2017-04-19T07:30:34.081Z,93.61
2017-04-19T07:31:14.555Z,93.51
2017-04-19T07:31:56.200Z,93.7
2017-04-19T07:32:36.719Z,93.32
2017-04-19T07:33:17.746Z,93.32
2017-04-19T07:33:58.272Z,93.23
2017-04-19T07:34:39.020Z,93.04
2017-04-19T07:35:19.792Z,93.13
2017-04-19T07:36:00.453Z,92.94
2017-04-19T07:36:41.185Z,92.94
2017-04-19T07:37:21.927Z,92.85
2017-04-19T07:38:03.147Z,92.94
2017-04-19T07:38:43.600Z,92.47
2017-04-19T07:39:24.134Z,92.47
2017-04-19T07:40:04.653Z,92.23
2017-04-19T07:40:45.440Z,92.33
2017-04-19T07:41:27.637Z,92.42
2017-04-19T07:42:08.135Z,92.23
2017-04-19T07:42:48.641Z,92.04
2017-04-19T07:43:29.247Z,92.14
2017-04-19T07:44:09.761Z,92.04
2017-04-19T07:44:50.224Z,91.85
2017-04-19T07:45:30.697Z,91.95
2017-04-19T07:46:11.167Z,91.76
2017-04-19T07:46:51.685Z,92.14
2017-04-19T07:47:32.203Z,92.23
2017-04-19T07:48:12.704Z,91.57
2017-04-19T07:48:53.195Z,91.09
2017-04-19T07:49:33.663Z,90.72
2017-04-19T07:50:14.155Z,90.72
2017-04-19T07:50:54.607Z,90.15
2017-04-19T07:51:35.068Z,90.15
2017-04-19T07:52:15.626Z,90.15
2017-04-19T07:52:56.101Z,90.24
2017-04-19T07:53:36.588Z,90.15
2017-04-19T07:54:17.083Z,90.15
2017-04-19T07:54:57.559Z,90.15
2017-04-19T07:55:38.037Z,89.58
2017-04-19T07:56:18.504Z,88.92
2017-04-19T07:56:58.995Z,89.2
2017-04-19T07:57:39.476Z,89.11
2017-04-19T07:58:20.688Z,88.92
2017-04-19T07:59:01.167Z,88.92
2017-04-19T07:59:41.648Z,88.96
2017-04-19T08:00:22.119Z,88.87
2017-04-19T08:01:02.685Z,88.77
2017-04-19T08:01:43.127Z,88.48
2017-04-19T08:02:23.594Z,88.2
2017-04-19T08:03:04.058Z,88.29
2017-04-19T08:03:44.557Z,88.01
2017-04-19T08:04:25.022Z,87.92
2017-04-19T08:05:05.515Z,87.63
2017-04-19T08:05:46.158Z,87.92
2017-04-19T08:06:27.387Z,87.54
2017-04-19T08:07:07.914Z,86.97
2017-04-19T08:07:48.979Z,87.45
2017-04-19T08:08:29.464Z,87.16
2017-04-19T08:09:09.923Z,87.54
2017-04-19T08:09:50.361Z,87.73
2017-04-19T08:10:30.881Z,87.63
2017-04-19T08:11:11.466Z,87.54
2017-04-19T08:11:51.926Z,87.54
2017-04-19T08:12:32.406Z,87.06
2017-04-19T08:13:12.928Z,86.49
2017-04-19T08:13:53.380Z,86.3
2017-04-19T08:14:33.901Z,86.02
2017-04-19T08:15:14.371Z,85.83
2017-04-19T08:17:28.717Z,85.17
2017-04-19T08:18:09.969Z,84.12
2017-04-19T08:18:50.464Z,84.41
2017-04-19T08:19:30.928Z,84.22
2017-04-19T08:20:11.426Z,84.31
2017-04-19T08:20:51.913Z,84.31
2017-04-19T08:21:32.356Z,83.74
2017-04-19T08:22:12.871Z,83.55
2017-04-19T08:22:53.307Z,83.36
2017-04-19T08:23:33.813Z,82.51
2017-04-19T08:24:14.312Z,81.94
2017-04-19T08:24:54.796Z,82.6
2017-04-19T08:25:35.304Z,82.42
2017-04-19T08:26:15.759Z,82.36
2017-04-19T08:26:56.275Z,82.51
2017-04-19T08:27:36.850Z,82.46
2017-04-19T08:28:17.552Z,82.27
2017-04-19T08:28:59.142Z,80.37
2017-04-19T08:29:39.732Z,79.42
2017-04-19T08:30:20.261Z,79.14
2017-04-19T08:31:05.878Z,80.08
2017-04-19T08:31:46.407Z,80.56
2017-04-19T08:32:26.840Z,80.94
2017-04-19T08:33:07.327Z,81.32
2017-04-19T08:33:47.845Z,81.79
2017-04-19T08:34:28.293Z,81.7
2017-04-19T08:35:08.748Z,81.32
2017-04-19T08:35:49.257Z,81.04
2017-04-19T08:36:29.746Z,80.56
2017-04-19T08:37:10.240Z,80.56
2017-04-19T08:37:50.712Z,79.61
2017-04-19T08:38:31.193Z,78.66
2017-04-19T08:39:11.679Z,78.28
2017-04-19T08:39:52.151Z,78.66
2017-04-19T08:40:32.695Z,79.04
2017-04-19T08:41:13.086Z,79.33
2017-04-19T08:41:53.571Z,79.14
2017-04-19T08:42:34.180Z,77.9
2017-04-19T08:43:14.692Z,76.39
2017-04-19T08:43:56.049Z,75.53
2017-04-19T08:44:36.589Z,75.53
2017-04-19T08:45:17.013Z,75.53
2017-04-19T08:45:57.495Z,75.67
2017-04-19T08:46:37.961Z,76.52
2017-04-19T08:47:18.478Z,75.47
2017-04-19T08:47:58.955Z,74.9
2017-04-19T08:48:39.437Z,74.33
2017-04-19T08:49:19.943Z,73.48
2017-04-19T08:50:00.473Z,72.53
2017-04-19T08:50:40.997Z,71.11
2017-04-19T08:51:21.529Z,70.35
2017-04-19T08:52:02.107Z,68.16
2017-04-19T08:52:42.895Z,68.44
2017-04-19T08:53:23.515Z,67.59
2017-04-19T08:54:04.003Z,68.54
2017-04-19T08:54:44.493Z,69.3
2017-04-19T08:55:24.991Z,69.3
2017-04-19T08:56:05.554Z,68.73
2017-04-19T08:56:46.018Z,69.49
2017-04-19T08:57:26.513Z,69.59
2017-04-19T08:58:07.008Z,69.59
2017-04-19T08:58:47.468Z,68.54
2017-04-19T08:59:27.909Z,69.21
2017-04-19T09:00:08.393Z,69.3
2017-04-19T09:00:48.902Z,68.26